Time;durP1;ratioP1;P1;durP2;ratioP2;P2;SDS_P1;SDS_P2;PMS_P1;PMS_P2;Temp;Humidity;BMP_temperature;BMP_pressure;BME280_temperature;BME280_humidity;BME280_pressure;Samples;Min_cycle;Max_cycle;Signal;HPM_P1;HPM_P2
2021/04/11 04:01:19;;;;;;;4.18;3.75;;;9.80;79.50;;;;;;5470309;23;93106;-89
2021/04/11 04:03:47;;;;;;;3.63;2.40;;;9.80;80.20;;;;;;4845406;28;93105;-90
2021/04/11 04:06:23;;;;;;;3.55;2.50;;;9.80;80.70;;;;;;4867025;29;92457;-89
2021/04/11 04:08:50;;;;;;;2.60;2.40;;;9.80;80.60;;;;;;4865502;29;92620;-87
2021/04/11 04:11:16;;;;;;;4.22;3.83;;;;;;;;;;4865792;29;91885;-89
2021/04/11 04:13:48;;;;;;;2.88;1.98;;;9.70;79.10;;;;;;4845714;29;91983;-89
2021/04/11 04:16:33;;;;;;;2.78;2.17;;;9.70;80.10;;;;;;4848691;29;92294;-87
2021/04/11 04:19:18;;;;;;;3.08;2.33;;;9.70;80.40;;;;;;4843280;29;95759;-89
2021/04/11 04:22:07;;;;;;;2.00;1.83;;;9.70;80.60;;;;;;4863359;28;91268;-90
2021/04/11 04:24:49;;;;;;;5.43;2.38;;;9.70;80.80;;;;;;4870851;28;92030;-89
2021/04/11 04:27:44;;;;;;;2.88;1.98;;;9.70;80.40;;;;;;4872051;28;92037;-87
2021/04/11 04:30:44;;;;;;;4.72;1.83;;;9.80;80.30;;;;;;4839629;29;93772;-87
2021/04/11 04:33:12;;;;;;;2.70;1.88;;;9.80;81.10;;;;;;4866154;29;92122;-88
2021/04/11 04:35:41;;;;;;;2.63;1.80;;;9.80;80.40;;;;;;4870845;28;92150;-88
2021/04/11 04:38:30;;;;;;;3.90;3.10;;;9.80;80.70;;;;;;4863468;29;92774;-88
2021/04/11 04:41:20;;;;;;;2.60;1.60;;;9.80;81.10;;;;;;4864784;29;91980;-88
2021/04/11 04:43:46;;;;;;;3.15;2.95;;;;;;;;;;4864141;28;92144;-88
2021/04/11 04:46:12;;;;;;;3.10;2.90;;;;;;;;;;4846840;29;93024;-90
2021/04/11 04:48:50;;;;;;;2.33;1.88;;;9.80;79.80;;;;;;4868233;29;91862;-89
2021/04/11 04:51:33;;;;;;;3.25;2.05;;;9.80;80.40;;;;;;4876464;28;91645;-88
2021/04/11 04:54:08;;;;;;;1.80;1.60;;;9.80;80.90;;;;;;4870276;28;92014;-88
2021/04/11 04:56:46;;;;;;;3.00;1.75;;;9.80;80.80;;;;;;4907150;28;92688;-88
2021/04/11 04:59:18;;;;;;;5.15;2.30;;;9.80;81.20;;;;;;4893349;28;92034;-88
2021/04/11 05:02:04;;;;;;;2.10;1.90;;;9.80;81.00;;;;;;4885772;28;92440;-89
2021/04/11 05:04:32;;;;;;;2.30;1.70;;;9.80;79.90;;;;;;4840038;29;91920;-87
2021/04/11 05:07:13;;;;;;;3.90;1.58;;;9.80;80.40;;;;;;4852260;29;91941;-86
2021/04/11 05:09:51;;;;;;;2.40;1.83;;;9.80;80.20;;;;;;4869830;28;93783;-89
2021/04/11 05:12:41;;;;;;;2.53;1.52;;;9.90;81.90;;;;;;4867388;29;92463;-87
2021/04/11 05:15:32;;;;;;;3.00;2.70;;;10.10;85.50;;;;;;4858494;29;91278;-86
2021/04/11 05:18:07;;;;;;;2.38;1.60;;;9.90;80.20;;;;;;4855092;29;92212;-86
2021/04/11 05:20:35;;;;;;;2.28;1.40;;;10.00;80.40;;;;;;4857597;29;91803;-86
2021/04/11 05:23:23;;;;;;;2.00;1.70;;;10.00;80.80;;;;;;4870784;29;92837;-86
2021/04/11 05:25:59;;;;;;;3.50;3.20;;;10.00;80.40;;;;;;4857170;29;91971;-86
2021/04/11 05:28:48;;;;;;;1.65;1.52;;;9.90;80.90;;;;;;4849973;29;92067;-86
2021/04/11 05:31:18;;;;;;;2.38;1.40;;;10.00;80.60;;;;;;4853453;29;95182;-86
2021/04/11 05:33:44;;;;;;;3.45;1.65;;;10.10;80.90;;;;;;4853856;29;92157;-87
2021/04/11 05:36:20;;;;;;;1.73;1.63;;;10.10;81.20;;;;;;4857895;29;91757;-87
2021/04/11 05:39:33;;;;;;;1.98;1.60;;;10.20;80.30;;;;;;4850473;29;91399;-86
2021/04/11 05:42:22;;;;;;;2.75;1.80;;;10.30;80.30;;;;;;4850036;29;91913;-87
2021/04/11 05:45:11;;;;;;;2.10;1.75;;;10.30;81.00;;;;;;4829560;29;94358;-86
2021/04/11 05:48:07;;;;;;;1.83;1.40;;;10.30;81.00;;;;;;4845158;29;92043;-86
2021/04/11 05:51:00;;;;;;;3.45;3.25;;;9.70;87.00;;;;;;4844193;29;93079;-88
2021/04/11 05:53:33;;;;;;;3.58;2.05;;;10.30;82.80;;;;;;4837002;29;93217;-88
2021/04/11 05:56:04;;;;;;;2.70;1.67;;;10.30;82.10;;;;;;4848319;29;93017;-88
2021/04/11 05:58:41;;;;;;;2.05;1.80;;;10.30;82.60;;;;;;4828898;29;91615;-89
2021/04/11 06:01:18;;;;;;;2.65;1.83;;;10.40;82.30;;;;;;4844230;29;91847;-88
2021/04/11 06:04:00;;;;;;;3.45;1.70;;;10.40;82.50;;;;;;4847076;29;92101;-89
2021/04/11 06:07:04;;;;;;;3.20;2.90;;;10.40;86.40;;;;;;4850002;29;92513;-90
2021/04/11 06:09:51;;;;;;;4.35;1.77;;;10.50;81.20;;;;;;4866869;29;90583;-88
2021/04/11 06:12:40;;;;;;;1.52;1.35;;;10.60;78.40;;;;;;4872614;29;91303;-90
2021/04/11 06:15:18;;;;;;;1.60;1.50;;;10.50;78.60;;;;;;4849582;28;93910;-92
2021/04/11 06:17:45;;;;;;;3.72;3.08;;;10.60;79.20;;;;;;4845711;29;92389;-91
2021/04/11 06:20:13;;;;;;;2.83;1.45;;;10.60;79.70;;;;;;4842868;29;91309;-91
2021/04/11 06:22:54;;;;;;;1.95;1.23;;;10.70;78.90;;;;;;4828658;29;92257;-89
2021/04/11 06:26:08;;;;;;;2.50;1.92;;;10.90;77.70;;;;;;4830154;29;94140;-86
2021/04/11 06:29:13;;;;;;;3.60;2.67;;;11.00;80.60;;;;;;4792139;29;92272;-85
2021/04/11 06:32:00;;;;;;;3.55;2.20;;;11.10;79.40;;;;;;4848857;29;91936;-86
2021/04/11 06:34:32;;;;;;;1.95;1.60;;;11.20;76.90;;;;;;4854241;29;91998;-86
2021/04/11 06:37:02;;;;;;;2.25;1.60;;;11.40;77.00;;;;;;4845627;29;92159;-86
2021/04/11 06:39:35;;;;;;;3.08;1.83;;;11.50;76.00;;;;;;4845981;29;91906;-90
2021/04/11 06:42:25;;;;;;;3.00;2.80;;;11.70;74.70;;;;;;4849296;29;92057;-87
2021/04/11 06:45:10;;;;;;;2.50;1.70;;;11.90;72.50;;;;;;4844604;29;93020;-89
2021/04/11 06:47:57;;;;;;;2.35;1.30;;;12.10;72.90;;;;;;4854631;29;92265;-91
2021/04/11 06:50:55;;;;;;;3.42;2.78;;;12.60;69.30;;;;;;4835855;29;93946;-92
2021/04/11 06:53:39;;;;;;;1.73;1.63;;;12.70;68.20;;;;;;4832194;29;92125;-90
2021/04/11 06:56:23;;;;;;;1.73;1.63;;;12.80;69.70;;;;;;4830041;29;91861;-91
2021/04/11 06:58:59;;;;;;;2.72;1.80;;;12.90;66.50;;;;;;4832886;29;95712;-92
2021/04/11 07:01:43;;;;;;;2.80;1.80;;;12.90;68.00;;;;;;4856027;29;93026;-89
2021/04/11 07:04:12;;;;;;;1.20;1.10;;;13.10;67.10;;;;;;4853869;29;91360;-91
2021/04/11 07:07:12;;;;;;;4.35;1.50;;;13.10;65.70;;;;;;4846493;29;91582;-89
2021/04/11 07:10:11;;;;;;;2.70;1.63;;;13.10;66.40;;;;;;4842104;29;92740;-89
2021/04/11 07:13:14;;;;;;;3.67;3.42;;;13.20;65.80;;;;;;4851791;29;93406;-92
2021/04/11 07:16:12;;;;;;;2.53;1.83;;;13.30;66.60;;;;;;4836535;29;92016;-89
2021/04/11 07:19:05;;;;;;;2.63;1.73;;;13.50;66.40;;;;;;4832786;29;91873;-89
2021/04/11 07:21:37;;;;;;;3.20;2.90;;;14.70;66.70;;;;;;4841099;29;91698;-88
2021/04/11 07:24:24;;;;;;;3.35;3.05;;;14.00;65.80;;;;;;4829211;29;93580;-87
2021/04/11 07:27:17;;;;;;;3.80;3.40;;;14.40;66.20;;;;;;4844546;29;92091;-86
2021/04/11 07:30:01;;;;;;;2.70;2.50;;;14.80;66.80;;;;;;4845405;29;93487;-87
2021/04/11 07:32:51;;;;;;;4.70;3.88;;;15.90;68.00;;;;;;4847360;29;91324;-88
2021/04/11 07:35:44;;;;;;;4.20;3.80;;;16.70;65.20;;;;;;4845207;29;91772;-87
2021/04/11 07:38:15;;;;;;;4.35;3.95;;;17.20;63.50;;;;;;4843506;29;92058;-87
2021/04/11 07:41:09;;;;;;;4.53;4.13;;;18.30;61.30;;;;;;4847243;29;93445;-86
2021/04/11 07:44:04;;;;;;;4.38;4.05;;;18.30;61.10;;;;;;4842900;29;92826;-87
2021/04/11 07:46:41;;;;;;;4.00;2.97;;;19.20;57.00;;;;;;4840283;29;92449;-87
2021/04/11 07:49:24;;;;;;;4.53;4.13;;;19.90;55.60;;;;;;4845389;29;92082;-87
2021/04/11 07:52:05;;;;;;;4.50;4.10;;;20.40;53.70;;;;;;4846467;29;91998;-88
2021/04/11 07:54:55;;;;;;;4.50;4.00;;;20.80;51.80;;;;;;4837041;29;95954;-86
2021/04/11 07:57:41;;;;;;;6.35;3.45;;;21.10;50.10;;;;;;4839646;29;92206;-86
2021/04/11 08:00:26;;;;;;;5.00;4.50;;;20.60;48.60;;;;;;4824454;29;92575;-87
2021/04/11 08:03:18;;;;;;;5.25;4.43;;;21.30;48.80;;;;;;4841443;29;92099;-87
2021/04/11 08:06:12;;;;;;;5.00;4.50;;;21.40;47.80;;;;;;4843112;29;93191;-86
2021/04/11 08:08:44;;;;;;;5.47;4.05;;;21.00;47.90;;;;;;4842738;29;92940;-86
2021/04/11 08:11:43;;;;;;;5.45;4.85;;;20.30;48.80;;;;;;4837917;29;91979;-86
2021/04/11 08:14:39;;;;;;;4.82;4.47;;;19.40;48.90;;;;;;4840829;29;91931;-87
2021/04/11 08:17:27;;;;;;;5.82;4.85;;;19.60;50.30;;;;;;4847572;29;92139;-86
2021/04/11 08:20:07;;;;;;;4.22;3.90;;;19.60;51.00;;;;;;4846332;29;92124;-85
2021/04/11 08:22:44;;;;;;;4.90;4.40;;;19.70;49.60;;;;;;4842919;29;92893;-87
2021/04/11 08:25:31;;;;;;;4.95;4.35;;;20.10;50.20;;;;;;4823791;29;92504;-86
2021/04/11 08:28:02;;;;;;;5.03;4.63;;;20.80;49.60;;;;;;4846510;29;91573;-87
2021/04/11 08:30:53;;;;;;;5.28;4.38;;;21.80;48.20;;;;;;4841404;29;92165;-87
2021/04/11 08:33:25;;;;;;;;;;;22.90;45.20;;;;;;4846277;29;92051;-86
2021/04/11 08:36:20;;;;;;;4.55;4.15;;;23.60;44.40;;;;;;4846994;29;93184;-87
2021/04/11 08:39:07;;;;;;;4.93;4.53;;;24.70;42.30;;;;;;4829839;29;95553;-87
2021/04/11 08:41:54;;;;;;;5.07;4.40;;;26.00;40.10;;;;;;4845034;29;92611;-87
2021/04/11 08:44:24;;;;;;;5.25;4.50;;;26.90;38.90;;;;;;4838005;29;92047;-87
2021/04/11 08:47:29;;;;;;;4.80;4.30;;;27.60;37.00;;;;;;4838202;29;92211;-87
2021/04/11 08:49:58;;;;;;;5.00;4.50;;;28.00;35.20;;;;;;4843388;29;92530;-87
2021/04/11 08:52:51;;;;;;;5.20;4.70;;;28.20;35.00;;;;;;4844035;29;92774;-87
2021/04/11 08:55:35;;;;;;;4.93;4.53;;;28.10;33.60;;;;;;4867192;29;91103;-87
2021/04/11 08:58:20;;;;;;;6.13;4.25;;;29.60;33.10;;;;;;4868177;29;91790;-88
2021/04/11 09:01:04;;;;;;;3.92;3.63;;;29.60;33.50;;;;;;4857788;29;92230;-87
2021/04/11 09:04:13;;;;;;;4.63;4.20;;;31.00;31.90;;;;;;4858353;29;92813;-88
2021/04/11 09:07:05;;;;;;;3.40;3.10;;;32.30;30.50;;;;;;4868476;29;92074;-88
2021/04/11 09:10:08;;;;;;;4.65;4.30;;;33.70;29.10;;;;;;4864954;29;91217;-88
2021/04/11 09:12:53;;;;;;;5.20;4.90;;;35.20;28.20;;;;;;4826747;29;96701;-87
2021/04/11 09:15:41;;;;;;;5.03;4.53;;;36.10;27.30;;;;;;4848176;29;93893;-86
2021/04/11 09:18:18;;;;;;;6.10;5.00;;;37.10;26.70;;;;;;4838167;29;92378;-86
2021/04/11 09:21:09;;;;;;;5.07;4.70;;;37.50;26.20;;;;;;4854614;29;91971;-88
2021/04/11 09:23:38;;;;;;;3.50;3.30;;;37.90;25.50;;;;;;4861813;28;90895;-88
2021/04/11 09:26:36;;;;;;;5.65;5.10;;;38.40;26.20;;;;;;4867404;29;91777;-87
2021/04/11 09:29:11;;;;;;;5.60;5.20;;;39.10;25.40;;;;;;4869484;29;92012;-87
2021/04/11 09:31:41;;;;;;;5.55;5.15;;;39.70;25.50;;;;;;4860627;29;92204;-87
2021/04/11 09:34:53;;;;;;;4.85;4.55;;;39.60;25.00;;;;;;4865775;29;91546;-87
2021/04/11 09:37:57;;;;;;;4.70;4.30;;;39.30;24.60;;;;;;4805255;29;92668;-86
2021/04/11 09:40:35;;;;;;;4.95;4.18;;;39.30;24.80;;;;;;4873458;29;91667;-87
2021/04/11 09:43:51;;;;;;;5.25;4.55;;;39.40;24.10;;;;;;4859981;29;91636;-86
2021/04/11 09:46:33;;;;;;;4.80;4.50;;;39.80;24.10;;;;;;4817587;29;92858;-87
2021/04/11 09:49:23;;;;;;;4.80;4.50;;;39.80;24.40;;;;;;4845022;29;92418;-87
2021/04/11 09:52:10;;;;;;;4.70;4.40;;;40.30;23.60;;;;;;4856770;29;91212;-86
2021/04/11 09:54:47;;;;;;;5.07;4.78;;;40.90;23.90;;;;;;4852816;29;92092;-87
2021/04/11 09:57:40;;;;;;;4.95;4.65;;;41.30;23.30;;;;;;4850452;29;93134;-86
2021/04/11 10:00:23;;;;;;;5.47;4.40;;;41.80;23.20;;;;;;4848496;29;93096;-86
2021/04/11 10:03:26;;;;;;;4.55;4.35;;;42.20;23.10;;;;;;4841340;29;91974;-86
2021/04/11 10:06:05;;;;;;;4.55;4.25;;;43.00;22.70;;;;;;4844990;29;92160;-86
2021/04/11 10:08:37;;;;;;;4.70;4.40;;;42.60;22.30;;;;;;4852236;29;92773;-87
2021/04/11 10:11:26;;;;;;;5.10;4.40;;;41.60;22.60;;;;;;4857105;29;92080;-86
2021/04/11 10:14:17;;;;;;;4.53;4.10;;;41.00;22.60;;;;;;4852531;29;92264;-87
2021/04/11 10:16:49;;;;;;;4.47;4.25;;;40.30;23.10;;;;;;4831176;29;92173;-86
2021/04/11 10:19:44;;;;;;;4.50;4.20;;;39.40;23.00;;;;;;4856975;29;92020;-87
2021/04/11 10:22:38;;;;;;;4.50;4.30;;;39.10;23.20;;;;;;4862969;29;91757;-87
2021/04/11 10:25:29;;;;;;;4.22;4.03;;;38.60;23.70;;;;;;4848539;29;91459;-87
2021/04/11 10:28:09;;;;;;;4.25;3.95;;;37.90;23.30;;;;;;4857728;29;92436;-87
2021/04/11 10:30:36;;;;;;;4.38;4.18;;;37.30;23.90;;;;;;4851943;29;92714;-85
2021/04/11 10:33:24;;;;;;;4.38;4.07;;;36.80;24.40;;;;;;4854206;29;91650;-86
2021/04/11 10:36:04;;;;;;;4.97;4.18;;;36.50;24.10;;;;;;4857318;29;91719;-86
2021/04/11 10:38:48;;;;;;;4.43;4.13;;;36.00;24.30;;;;;;4857101;29;91940;-87
2021/04/11 10:41:19;;;;;;;12.73;6.63;;;36.70;24.50;;;;;;4861099;29;92121;-87
2021/04/11 10:43:50;;;;;;;6.05;5.45;;;37.70;24.10;;;;;;4852951;29;92399;-88
2021/04/11 10:46:30;;;;;;;6.25;5.20;;;38.60;23.60;;;;;;4843888;29;91094;-88
2021/04/11 10:49:07;;;;;;;8.02;5.95;;;39.10;23.50;;;;;;4838886;29;92128;-87
2021/04/11 10:52:00;;;;;;;4.38;4.13;;;39.60;23.50;;;;;;4839358;28;92089;-87
2021/04/11 10:54:47;;;;;;;4.30;4.05;;;39.10;22.80;;;;;;4836565;29;93090;-88
2021/04/11 10:57:29;;;;;;;4.38;4.18;;;37.40;23.20;;;;;;4859274;29;91883;-88
2021/04/11 10:59:54;;;;;;;2.88;2.40;;;36.50;23.70;;;;;;4843991;29;92136;-88
2021/04/11 11:02:39;;;;;;;3.90;3.60;;;35.50;24.30;;;;;;4846201;29;92009;-87
2021/04/11 11:05:25;;;;;;;4.25;3.97;;;34.60;24.20;;;;;;4849232;29;93343;-87
2021/04/11 11:08:12;;;;;;;3.67;3.47;;;34.20;25.20;;;;;;4848642;29;91583;-87
2021/04/11 11:11:04;;;;;;;4.10;3.80;;;34.30;24.70;;;;;;4844926;29;92214;-87
2021/04/11 11:14:08;;;;;;;3.90;3.60;;;34.20;25.00;;;;;;4847592;29;91428;-87
2021/04/11 11:17:15;;;;;;;3.83;3.63;;;34.10;25.00;;;;;;4788069;29;92143;-87
2021/04/11 11:19:43;;;;;;;4.22;3.75;;;33.50;25.30;;;;;;4842764;29;92558;-87
2021/04/11 11:22:28;;;;;;;3.80;3.50;;;33.50;25.70;;;;;;4846117;29;92897;-88
2021/04/11 11:25:28;;;;;;;3.35;3.10;;;34.10;25.20;;;;;;4843792;29;93860;-87
2021/04/11 11:28:13;;;;;;;3.92;3.63;;;34.80;24.60;;;;;;4842298;29;93579;-87
2021/04/11 11:31:00;;;;;;;4.22;3.92;;;35.90;24.70;;;;;;4847475;29;92175;-88
2021/04/11 11:33:28;;;;;;;3.83;3.50;;;36.90;24.30;;;;;;4847680;29;92126;-88
2021/04/11 11:36:23;;;;;;;4.07;3.78;;;37.60;24.20;;;;;;4842456;29;92369;-89
2021/04/11 11:38:51;;;;;;;4.97;3.53;;;38.50;23.50;;;;;;4843997;29;92096;-88
2021/04/11 11:41:29;;;;;;;3.95;3.65;;;38.60;23.70;;;;;;4845146;29;91796;-88
2021/04/11 11:44:10;;;;;;;3.90;3.70;;;38.70;24.20;;;;;;4845501;29;92021;-88
2021/04/11 11:46:45;;;;;;;4.13;3.92;;;38.90;23.80;;;;;;4852277;29;93280;-88
2021/04/11 11:49:16;;;;;;;4.07;3.78;;;38.60;23.70;;;;;;4844488;29;93296;-87
2021/04/11 11:52:05;;;;;;;3.90;3.70;;;38.00;24.00;;;;;;4849524;29;91559;-88
2021/04/11 11:54:45;;;;;;;4.25;3.95;;;38.60;24.00;;;;;;4845378;29;91912;-88
2021/04/11 11:57:42;;;;;;;4.22;3.92;;;39.60;23.20;;;;;;4849497;29;93202;-88
2021/04/11 12:00:08;;;;;;;4.05;3.85;;;41.00;23.00;;;;;;4845048;29;91984;-88
2021/04/11 12:02:46;;;;;;;5.93;5.32;;;42.00;23.00;;;;;;4844475;29;92250;-88
2021/04/11 12:05:22;;;;;;;4.90;4.57;;;42.90;22.60;;;;;;4842818;29;92093;-88
2021/04/11 12:08:00;;;;;;;5.43;4.93;;;43.00;22.70;;;;;;4846715;29;91677;-89
2021/04/11 12:10:48;;;;;;;4.82;4.40;;;43.10;22.70;;;;;;4845610;29;91982;-88
2021/04/11 12:13:25;;;;;;;4.40;4.20;;;43.40;22.60;;;;;;4814508;29;92089;-88
2021/04/11 12:16:00;;;;;;;4.88;4.50;;;43.40;22.30;;;;;;4843508;29;93007;-88
2021/04/11 12:18:29;;;;;;;4.85;4.65;;;43.70;22.40;;;;;;4852080;29;93101;-88
2021/04/11 12:21:20;;;;;;;5.43;4.93;;;43.90;22.50;;;;;;4848123;29;92875;-88
2021/04/11 12:24:06;;;;;;;4.80;4.50;;;44.10;22.60;;;;;;4821959;29;92114;-89
2021/04/11 12:26:33;;;;;;;5.22;4.93;;;44.40;22.10;;;;;;4843108;29;91927;-87
2021/04/11 12:29:09;;;;;;;4.85;4.57;;;44.40;22.40;;;;;;4850816;29;92765;-86
2021/04/11 12:31:35;;;;;;;4.65;4.45;;;44.40;22.00;;;;;;4848428;29;92809;-87
2021/04/11 12:34:25;;;;;;;5.47;5.18;;;44.30;22.30;;;;;;4840033;29;91334;-88
2021/04/11 12:37:12;;;;;;;4.90;4.60;;;44.70;22.10;;;;;;4841302;29;91876;-88
2021/04/11 12:39:38;;;;;;;5.03;4.72;;;44.60;22.00;;;;;;4834375;29;92809;-88
2021/04/11 12:42:16;;;;;;;5.28;5.07;;;44.20;22.10;;;;;;4842848;29;92898;-88
2021/04/11 12:45:02;;;;;;;5.15;4.85;;;44.30;22.20;;;;;;4831968;29;92019;-87
2021/04/11 12:47:46;;;;;;;5.50;5.10;;;44.20;22.10;;;;;;4844914;29;92381;-87
2021/04/11 12:50:28;;;;;;;4.95;4.75;;;44.20;22.20;;;;;;4851762;29;92089;-87
2021/04/11 12:52:56;;;;;;;5.00;4.80;;;43.90;22.00;;;;;;4844552;29;92408;-87
2021/04/11 12:55:29;;;;;;;4.65;4.45;;;43.70;22.30;;;;;;4840376;29;92043;-88
2021/04/11 12:58:25;;;;;;;4.85;4.55;;;43.50;23.00;;;;;;4857863;29;91988;-87
2021/04/11 13:00:57;;;;;;;4.95;4.75;;;43.40;22.60;;;;;;4846490;29;91481;-87
2021/04/11 13:03:41;;;;;;;4.60;4.40;;;43.10;22.10;;;;;;4846802;29;92155;-87
2021/04/11 13:06:39;;;;;;;4.90;4.60;;;43.10;22.40;;;;;;4819292;29;92031;-88
2021/04/11 13:09:16;;;;;;;4.90;4.50;;;43.20;21.90;;;;;;4839913;29;92975;-88
2021/04/11 13:12:11;;;;;;;4.60;4.20;;;42.70;22.10;;;;;;4845400;29;92722;-88
2021/04/11 13:14:40;;;;;;;4.50;4.20;;;42.40;22.60;;;;;;4845893;29;92568;-89
2021/04/11 13:17:13;;;;;;;4.68;4.38;;;42.20;22.20;;;;;;4831605;29;91883;-89
2021/04/11 13:19:58;;;;;;;4.47;4.28;;;42.00;21.90;;;;;;4848827;29;92005;-88
2021/04/11 13:22:43;;;;;;;4.60;4.20;;;41.80;22.20;;;;;;4850156;29;91929;-88
2021/04/11 13:25:18;;;;;;;5.18;4.85;;;41.40;22.20;;;;;;4847359;29;92389;-87
2021/04/11 13:27:54;;;;;;;3.95;3.85;;;40.90;21.90;;;;;;4849271;29;91265;-87
2021/04/11 13:30:28;;;;;;;4.47;3.65;;;39.80;21.30;;;;;;4839382;29;91957;-87
2021/04/11 13:33:02;;;;;;;7.05;3.40;;;38.50;20.70;;;;;;4849613;29;92458;-87
2021/04/11 13:35:32;;;;;;;3.08;2.83;;;37.40;21.00;;;;;;4846374;29;93017;-86
2021/04/11 13:38:02;;;;;;;;;;;36.20;21.20;;;;;;4850579;29;91951;-87
2021/04/11 13:40:31;;;;;;;3.20;3.00;;;34.80;22.20;;;;;;4849590;29;92170;-87
2021/04/11 13:43:24;;;;;;;3.15;2.80;;;32.90;22.70;;;;;;4848394;29;92486;-86
2021/04/11 13:45:52;;;;;;;2.90;2.80;;;31.90;22.90;;;;;;4846443;29;92539;-86
2021/04/11 13:48:44;;;;;;;2.70;2.60;;;31.10;23.20;;;;;;4828841;29;91657;-86
2021/04/11 13:51:29;;;;;;;2.90;2.80;;;30.50;23.20;;;;;;4847749;29;91865;-86
2021/04/11 13:54:19;;;;;;;2.80;2.70;;;29.80;23.60;;;;;;4848166;29;92472;-87
2021/04/11 13:57:15;;;;;;;2.83;2.67;;;29.20;24.20;;;;;;4851660;29;92093;-86
2021/04/11 13:59:53;;;;;;;2.45;2.35;;;28.90;24.30;;;;;;4839587;29;91960;-86
2021/04/11 14:02:19;;;;;;;2.60;2.50;;;28.10;24.70;;;;;;4849828;29;93200;-87
2021/04/11 14:05:14;;;;;;;2.50;2.40;;;27.60;24.90;;;;;;4851892;29;92505;-87
2021/04/11 14:07:46;;;;;;;2.40;2.30;;;27.90;25.10;;;;;;4840347;29;92864;-86
2021/04/11 14:10:24;;;;;;;2.38;2.28;;;28.30;24.90;;;;;;4846980;29;92002;-86
2021/04/11 14:12:57;;;;;;;2.22;2.13;;;28.00;25.10;;;;;;4849399;29;91977;-87
2021/04/11 14:15:32;;;;;;;2.50;2.40;;;27.50;25.20;;;;;;4849684;29;92780;-86
2021/04/11 14:18:28;;;;;;;2.30;2.20;;;27.80;24.70;;;;;;4865254;29;92991;-87
2021/04/11 14:20:59;;;;;;;2.50;2.40;;;27.60;24.90;;;;;;4848028;29;90747;-87
2021/04/11 14:23:47;;;;;;;2.40;2.30;;;27.90;25.00;;;;;;4841350;29;92002;-89
2021/04/11 14:26:27;;;;;;;2.60;2.50;;;27.20;24.80;;;;;;4842074;29;92846;-88
2021/04/11 14:29:04;;;;;;;2.65;2.55;;;26.90;25.80;;;;;;4841456;29;93911;-88
2021/04/11 14:31:51;;;;;;;2.40;2.30;;;26.70;25.40;;;;;;4858454;29;91957;-89
2021/04/11 14:34:21;;;;;;;2.50;2.40;;;26.30;25.80;;;;;;4838383;29;91943;-88
2021/04/11 14:37:23;;;;;;;2.30;2.10;;;25.60;26.50;;;;;;4859400;29;92193;-88
2021/04/11 14:40:09;;;;;;;2.17;2.10;;;25.20;26.50;;;;;;4842371;29;93577;-90
2021/04/11 14:42:40;;;;;;;2.20;2.10;;;25.10;26.50;;;;;;4823346;29;92136;-88
2021/04/11 14:45:10;;;;;;;;;;;24.70;26.70;;;;;;4847764;29;91954;-90
2021/04/11 14:47:52;;;;;;;2.20;2.10;;;24.40;27.30;;;;;;4850537;29;93423;-88
2021/04/11 14:50:34;;;;;;;2.03;2.03;;;24.30;27.30;;;;;;4838402;29;92380;-91
2021/04/11 14:53:17;;;;;;;2.20;2.10;;;24.40;27.20;;;;;;4841801;29;92106;-91
2021/04/11 14:56:07;;;;;;;1.90;1.90;;;24.20;27.20;;;;;;4842948;29;93074;-89
2021/04/11 14:59:01;;;;;;;1.95;1.90;;;24.20;27.30;;;;;;4848916;29;92784;-88
2021/04/11 15:01:46;;;;;;;2.30;2.20;;;24.20;27.30;;;;;;4847559;29;92946;-89
2021/04/11 15:04:25;;;;;;;2.17;2.10;;;24.60;27.10;;;;;;4861615;29;92098;-89
2021/04/11 15:07:20;;;;;;;2.03;2.00;;;24.70;27.00;;;;;;4854134;29;92116;-89
2021/04/11 15:09:58;;;;;;;2.30;2.20;;;24.90;26.40;;;;;;4847748;29;93085;-90
2021/04/11 15:13:02;;;;;;;2.08;2.00;;;24.90;26.90;;;;;;4849134;29;92477;-89
2021/04/11 15:15:48;;;;;;;2.15;2.15;;;24.60;27.00;;;;;;4849020;29;91211;-88
2021/04/11 15:18:23;;;;;;;2.20;2.10;;;24.10;27.20;;;;;;4843531;29;92017;-89
2021/04/11 15:21:04;;;;;;;2.40;2.30;;;24.10;26.90;;;;;;4851303;29;93455;-87
2021/04/11 15:23:52;;;;;;;2.20;2.10;;;23.90;27.40;;;;;;4843087;29;94029;-88
2021/04/11 15:26:23;;;;;;;2.30;2.00;;;23.70;27.40;;;;;;4838180;29;91925;-89
2021/04/11 15:29:03;;;;;;;1.92;1.83;;;23.30;27.90;;;;;;4828577;29;91986;-91
2021/04/11 15:31:59;;;;;;;2.10;2.10;;;23.00;28.00;;;;;;4846804;29;92788;-90
2021/04/11 15:34:31;;;;;;;2.00;1.90;;;22.90;28.50;;;;;;4817804;29;93326;-91
2021/04/11 15:37:17;;;;;;;2.00;2.00;;;22.70;28.70;;;;;;4857191;29;91930;-90
2021/04/11 15:40:20;;;;;;;2.20;2.10;;;22.70;28.20;;;;;;4817466;29;91950;-89
2021/04/11 15:42:52;;;;;;;2.05;1.95;;;22.60;28.90;;;;;;4829714;29;95060;-88
2021/04/11 15:45:26;;;;;;;4.93;2.33;;;22.30;29.00;;;;;;4834288;29;93334;-88
2021/04/11 15:48:08;;;;;;;2.10;2.00;;;22.10;28.90;;;;;;4861995;29;91913;-88
2021/04/11 15:50:34;;;;;;;2.10;2.00;;;21.90;29.00;;;;;;4828677;29;92884;-89
2021/04/11 15:53:31;;;;;;;1.80;1.80;;;21.60;29.40;;;;;;4844630;29;92294;-89
2021/04/11 15:56:14;;;;;;;2.05;1.90;;;21.60;29.60;;;;;;4847992;29;93230;-89
2021/04/11 15:59:15;;;;;;;2.00;1.90;;;21.50;29.70;;;;;;4853807;29;91908;-89
2021/04/11 16:01:46;;;;;;;1.60;1.60;;;21.60;29.30;;;;;;4869523;29;91376;-88
2021/04/11 16:04:22;;;;;;;1.77;1.77;;;21.30;29.60;;;;;;4849979;29;92736;-88
2021/04/11 16:07:10;;;;;;;1.88;1.88;;;20.90;29.70;;;;;;4863691;29;91943;-89
2021/04/11 16:09:42;;;;;;;1.80;1.80;;;20.50;30.20;;;;;;4851102;29;91175;-88
2021/04/11 16:12:29;;;;;;;1.75;1.75;;;20.40;30.60;;;;;;4853865;29;91845;-88
2021/04/11 16:15:51;;;;;;;1.90;1.90;;;20.40;30.80;;;;;;4868390;29;92366;-88
2021/04/11 16:18:40;;;;;;;1.90;1.90;;;20.30;30.60;;;;;;4824022;29;92257;-88
2021/04/11 16:21:29;;;;;;;1.70;1.70;;;20.20;30.90;;;;;;4851682;29;91610;-88
2021/04/11 16:24:16;;;;;;;1.80;1.80;;;20.30;31.10;;;;;;4832127;29;92124;-88
2021/04/11 16:27:17;;;;;;;2.00;1.95;;;20.10;30.70;;;;;;4848531;29;92776;-88
2021/04/11 16:29:42;;;;;;;1.70;1.70;;;19.90;31.40;;;;;;4836428;29;93678;-89
2021/04/11 16:32:34;;;;;;;1.90;1.80;;;19.70;31.50;;;;;;4848013;29;92008;-89
2021/04/11 16:35:29;;;;;;;1.70;1.70;;;19.60;31.80;;;;;;4834624;29;91908;-88
2021/04/11 16:38:26;;;;;;;2.00;1.90;;;19.40;31.90;;;;;;4834009;29;92965;-90
2021/04/11 16:41:05;;;;;;;2.00;2.00;;;19.40;32.10;;;;;;4849422;29;92176;-86
2021/04/11 16:43:33;;;;;;;1.85;1.85;;;19.30;32.00;;;;;;4847460;29;91861;-86
2021/04/11 16:46:09;;;;;;;1.65;1.65;;;19.30;32.40;;;;;;4838346;29;93064;-86
2021/04/11 16:48:46;;;;;;;1.70;1.70;;;19.20;32.30;;;;;;4842382;29;92358;-88
2021/04/11 16:51:27;;;;;;;2.15;1.73;;;19.20;32.40;;;;;;4847662;29;93172;-88
2021/04/11 16:54:04;;;;;;;1.80;1.80;;;19.00;31.90;;;;;;4845137;29;92137;-87
2021/04/11 16:57:04;;;;;;;1.85;1.80;;;18.90;32.10;;;;;;4831732;29;92023;-88
2021/04/11 17:00:02;;;;;;;1.80;1.80;;;18.60;32.40;;;;;;4870441;29;92890;-92
2021/04/11 17:05:47;;;;;;;1.70;1.70;;;18.50;32.30;;;;;;4845844;29;91089;-90
2021/04/11 17:08:19;;;;;;;2.08;1.60;;;18.40;32.30;;;;;;4840306;29;92146;-90
2021/04/11 17:11:01;;;;;;;1.50;1.50;;;18.40;32.20;;;;;;4831006;29;94018;-90
2021/04/11 17:13:58;;;;;;;1.60;1.60;;;18.30;32.50;;;;;;4847706;29;93151;-89
2021/04/11 17:16:41;;;;;;;1.90;1.80;;;18.20;32.40;;;;;;4849665;29;91989;-91
2021/04/11 17:19:38;;;;;;;1.93;1.83;;;18.20;32.60;;;;;;4842642;29;92159;-89
2021/04/11 17:22:42;;;;;;;1.85;1.85;;;18.20;32.90;;;;;;4833371;29;94431;-89
2021/04/11 17:25:21;;;;;;;1.60;1.60;;;18.10;33.20;;;;;;4791238;29;92344;-86
2021/04/11 17:27:53;;;;;;;2.00;1.90;;;18.10;33.10;;;;;;4819099;29;91654;-87
2021/04/11 17:30:35;;;;;;;1.60;1.58;;;18.10;33.50;;;;;;4849003;29;92472;-88
2021/04/11 17:36:47;;;;;;;1.60;1.60;;;18.00;33.30;;;;;;4872542;29;92082;-85
2021/04/11 17:39:18;;;;;;;1.60;1.60;;;17.90;33.70;;;;;;4853772;29;91427;-88
2021/04/11 17:42:02;;;;;;;1.80;1.80;;;17.90;33.80;;;;;;4867475;29;92870;-87
2021/04/11 17:45:01;;;;;;;1.60;1.60;;;17.90;33.90;;;;;;4838557;29;93333;-88
2021/04/11 17:47:49;;;;;;;1.88;1.88;;;17.90;34.30;;;;;;4855624;29;92110;-88
2021/04/11 17:50:33;;;;;;;1.95;1.85;;;17.80;34.30;;;;;;4871264;29;91225;-87
2021/04/11 17:53:18;;;;;;;1.85;1.80;;;17.80;34.00;;;;;;4867552;29;91851;-87
2021/04/11 17:56:14;;;;;;;2.00;1.90;;;17.80;34.40;;;;;;4859862;29;92815;-87
2021/04/11 17:58:52;;;;;;;3.15;2.65;;;17.80;34.00;;;;;;4847001;29;92100;-90
2021/04/11 18:01:46;;;;;;;3.60;3.30;;;17.80;40.10;;;;;;4845446;29;91497;-87
2021/04/11 18:04:41;;;;;;;2.95;2.70;;;17.80;45.40;;;;;;4854356;29;91989;-87
2021/04/11 18:07:22;;;;;;;2.97;2.72;;;17.70;47.80;;;;;;4850956;29;93241;-87
2021/04/11 18:09:54;;;;;;;;;;;17.70;47.80;;;;;;4846772;29;93008;-87
2021/04/11 18:12:38;;;;;;;3.25;2.95;;;17.60;48.80;;;;;;4845762;29;92105;-87
2021/04/11 18:15:26;;;;;;;2.83;2.63;;;17.50;48.70;;;;;;4855111;29;92772;-85
2021/04/11 18:18:22;;;;;;;2.97;2.85;;;17.50;49.50;;;;;;4861954;29;93875;-89
2021/04/11 18:21:04;;;;;;;3.13;2.83;;;17.50;50.20;;;;;;4856571;29;93097;-87